Portada
METAR-TAF:

METAR-TAF

Aeroports :

Agen, França

latitud: 44-11N, longitud: 000-36E, altitud: 61 m

Observació

L'informe es va fer fa 27 minuts, a les 21:00 UTC
Vent 2 kt del Oest/Sud-Oest
Temperatura 18°C
Humitat 68%
Pressió 1019 hPa
Visibilitat 10 km o més
sense núvols per sota de 1500 mi sense presència de cumulonimbus.

METAR: LFBA 232100Z AUTO 24002KT CAVOK 18/12 Q1019

Hora: 23:27 (21:27 UTC)

Pronòstic

L'informe es va fer fa 7 hores i 27 minuts, a les 14:00 UTC
Pronòstic vàlid del 23 a les 15 UTC al 23 a les 24 UTC
Vent 7 kt del Nord/Nord-Oest
Visibilitat 10 km o més
sense núvols per sota de 1500 mi sense presència de cumulonimbus.

TAF: LFBA 231400Z 2315/2324 34007KT CAVOK

Observacions i pronòstics meteorològics de més de 4000 aeroports (METAR i TAF).

Les estacions disponibles són els punts grocs i vermells al mapa.

Posi el ratolí al punt desitjat per veure el nom de l'estació.

Feu clic per veure les observacions i els pronòstics meteorològics.

Per canviar el mapa: feu clic els botons verds amb una creu de color negre per apropar; al botó verd amb un guió per allunyar la imatge; o en les fletxes verdes per a mapes adjacents.


METAR-TAF: